Summitville, Tennessee
Current Conditions -  °F | °C
As of 4:15 AM on Friday 21 Nov 2014 (Local Time) from KRNC Reporting Station
Broken Clouds Broken Clouds  
Wind Chill: 27°   Ceiling: 6000
Heat Index: 27°   Visibility: 10mi
Dew Point: 27°   Wind: 0mph
Humidity: 100%   Direction: NA
Pressure: 30.35"   Gusts: NA
Location:  35.56°N, 85.99°W
Report Text: KRNC 211015Z AUTO 00000KT 10SM BKN060 M03/M03 A3035 RMK
Loading
Personal Weather Stations






























Interactive Weather Map New forecast layout! Learn more

10-Day Weather Forecast

Advertisements
Track Severe Weather on mobile